sensor_id;sensor_type;location;lat;lon;timestamp;pressure;altitude;pressure_sealevel;temperature;humidity
68145;BME280;55400;51.824;-0.196;2023-07-20T00:03:57;100701.92;;;18.02;63.27
68145;BME280;55400;51.824;-0.196;2023-07-20T00:07:57;100702.39;;;17.96;63.45
68145;BME280;55400;51.824;-0.196;2023-07-20T00:11:57;100702.39;;;17.91;63.45
68145;BME280;55400;51.824;-0.196;2023-07-20T00:15:57;100699.23999999999;;;17.85;63.60
68145;BME280;55400;51.824;-0.196;2023-07-20T00:19:57;100693.55;;;17.78;63.59
68145;BME280;55400;51.824;-0.196;2023-07-20T00:23:57;100695.08;;;17.70;63.55
68145;BME280;55400;51.824;-0.196;2023-07-20T00:27:57;100695.08;;;17.61;63.44
68145;BME280;55400;51.824;-0.196;2023-07-20T00:31:58;100693.56;;;17.56;63.44
68145;BME280;55400;51.824;-0.196;2023-07-20T00:35:57;100695.03;;;17.52;63.61
68145;BME280;55400;51.824;-0.196;2023-07-20T00:39:57;100694.62;;;17.46;63.74
68145;BME280;55400;51.824;-0.196;2023-07-20T00:43:57;100695.97;;;17.37;63.78
68145;BME280;55400;51.824;-0.196;2023-07-20T00:47:58;100695.97;;;17.27;63.78
68145;BME280;55400;51.824;-0.196;2023-07-20T00:51:58;100693.84999999999;;;17.20;64.06
68145;BME280;55400;51.824;-0.196;2023-07-20T00:55:58;100694.55;;;17.17;64.23
68145;BME280;55400;51.824;-0.196;2023-07-20T00:59:57;100695.09000000001;;;17.11;64.78
68145;BME280;55400;51.824;-0.196;2023-07-20T01:03:58;100692.72;;;17.06;65.24
68145;BME280;55400;51.824;-0.196;2023-07-20T01:07:58;100696.62;;;17.01;65.44
68145;BME280;55400;51.824;-0.196;2023-07-20T01:11:59;100690.59;;;17.02;65.73
68145;BME280;55400;51.824;-0.196;2023-07-20T01:16:00;100691.08;;;16.99;65.22
68145;BME280;55400;51.824;-0.196;2023-07-20T01:24:09;100677.89;;;17.01;65.21
68145;BME280;55400;51.824;-0.196;2023-07-20T01:31:58;100678.42000000001;;;16.99;65.07
68145;BME280;55400;51.824;-0.196;2023-07-20T01:35:58;100678.42000000001;;;16.96;65.07
68145;BME280;55400;51.824;-0.196;2023-07-20T01:39:58;100679.97;;;16.90;65.25
68145;BME280;55400;51.824;-0.196;2023-07-20T01:43:58;100684.24;;;16.85;65.69
68145;BME280;55400;51.824;-0.196;2023-07-20T01:47:58;100684.7;;;16.86;65.73
68145;BME280;55400;51.824;-0.196;2023-07-20T01:51:58;100684.7;;;16.87;65.22
68145;BME280;55400;51.824;-0.196;2023-07-20T01:55:58;100680.35;;;16.86;64.63
68145;BME280;55400;51.824;-0.196;2023-07-20T01:59:58;100676.61;;;16.88;63.46
68145;BME280;55400;51.824;-0.196;2023-07-20T02:03:58;100673.6;;;16.86;63.46
68145;BME280;55400;51.824;-0.196;2023-07-20T02:07:58;100676.68;;;16.82;63.24
68145;BME280;55400;51.824;-0.196;2023-07-20T02:11:58;100677.20000000001;;;16.80;63.29
68145;BME280;55400;51.824;-0.196;2023-07-20T02:15:58;100676.15;;;16.78;62.92
68145;BME280;55400;51.824;-0.196;2023-07-20T02:19:58;100676.15;;;16.76;62.92
68145;BME280;55400;51.824;-0.196;2023-07-20T02:23:58;100675.12000000001;;;16.72;62.81
68145;BME280;55400;51.824;-0.196;2023-07-20T02:27:58;100671.81;;;16.64;63.10
68145;BME280;55400;51.824;-0.196;2023-07-20T02:31:58;100670.43;;;16.55;63.25
68145;BME280;55400;51.824;-0.196;2023-07-20T02:35:58;100659.61;;;16.50;63.46
68145;BME280;55400;51.824;-0.196;2023-07-20T02:39:58;100655.24;;;16.42;63.19
68145;BME280;55400;51.824;-0.196;2023-07-20T02:43:58;100651.9;;;16.33;63.12
68145;BME280;55400;51.824;-0.196;2023-07-20T02:47:58;100656.70999999999;;;16.23;63.04
68145;BME280;55400;51.824;-0.196;2023-07-20T02:51:58;100656.02;;;16.16;62.80
68145;BME280;55400;51.824;-0.196;2023-07-20T02:55:58;100655.76999999999;;;16.07;62.63
68145;BME280;55400;51.824;-0.196;2023-07-20T02:59:58;100666.16;;;16.00;62.57
68145;BME280;55400;51.824;-0.196;2023-07-20T03:03:58;100666.16;;;15.98;62.79
68145;BME280;55400;51.824;-0.196;2023-07-20T03:07:58;100669.83;;;15.93;62.78
68145;BME280;55400;51.824;-0.196;2023-07-20T03:11:58;100667.57;;;15.90;62.87
68145;BME280;55400;51.824;-0.196;2023-07-20T03:19:58;100665.86;;;15.93;63.31
68145;BME280;55400;51.824;-0.196;2023-07-20T03:23:58;100669.56;;;15.96;62.85
68145;BME280;55400;51.824;-0.196;2023-07-20T03:27:58;100672.34;;;15.93;63.08
68145;BME280;55400;51.824;-0.196;2023-07-20T03:31:58;100677.78;;;15.95;63.32
68145;BME280;55400;51.824;-0.196;2023-07-20T03:35:58;100671.62;;;15.93;62.99
68145;BME280;55400;51.824;-0.196;2023-07-20T03:39:58;100678.98;;;15.96;63.00
68145;BME280;55400;51.824;-0.196;2023-07-20T03:43:58;100678.98;;;15.99;63.00
68145;BME280;55400;51.824;-0.196;2023-07-20T03:47:58;100671.95;;;16.02;62.77
68145;BME280;55400;51.824;-0.196;2023-07-20T03:51:58;100674.58;;;15.99;62.55
68145;BME280;55400;51.824;-0.196;2023-07-20T03:55:58;100672.13;;;15.94;62.33
68145;BME280;55400;51.824;-0.196;2023-07-20T03:59:59;100678.49;;;15.90;62.60
68145;BME280;55400;51.824;-0.196;2023-07-20T04:03:58;100678.49;;;15.84;62.60
68145;BME280;55400;51.824;-0.196;2023-07-20T04:07:58;100677.91;;;15.82;63.08
68145;BME280;55400;51.824;-0.196;2023-07-20T04:11:58;100680.16;;;15.85;62.97
68145;BME280;55400;51.824;-0.196;2023-07-20T04:15:58;100681.26999999999;;;15.89;62.92
68145;BME280;55400;51.824;-0.196;2023-07-20T04:19:58;100681.26999999999;;;15.92;62.99
68145;BME280;55400;51.824;-0.196;2023-07-20T04:23:58;100671.53;;;15.88;62.88
68145;BME280;55400;51.824;-0.196;2023-07-20T04:27:58;100668.40999999999;;;15.85;63.82
68145;BME280;55400;51.824;-0.196;2023-07-20T04:31:58;100668.40999999999;;;15.80;63.82
68145;BME280;55400;51.824;-0.196;2023-07-20T04:35:58;100664.81;;;15.70;63.46
68145;BME280;55400;51.824;-0.196;2023-07-20T04:39:58;100667.74;;;15.63;63.27
68145;BME280;55400;51.824;-0.196;2023-07-20T04:43:58;100667.74;;;15.58;63.35
68145;BME280;55400;51.824;-0.196;2023-07-20T04:47:58;100666.3;;;15.52;63.17
68145;BME280;55400;51.824;-0.196;2023-07-20T04:51:58;100669.04;;;15.49;63.41
68145;BME280;55400;51.824;-0.196;2023-07-20T04:55:58;100665.23999999999;;;15.45;63.49
68145;BME280;55400;51.824;-0.196;2023-07-20T04:59:58;100667.31;;;15.41;63.45
68145;BME280;55400;51.824;-0.196;2023-07-20T05:03:58;100662.97;;;15.37;63.25
68145;BME280;55400;51.824;-0.196;2023-07-20T05:07:58;100672.2;;;15.29;63.50
68145;BME280;55400;51.824;-0.196;2023-07-20T05:11:58;100672.2;;;15.21;63.50
68145;BME280;55400;51.824;-0.196;2023-07-20T05:15:58;100673.20999999999;;;15.22;64.01
68145;BME280;55400;51.824;-0.196;2023-07-20T05:19:58;100679.28;;;15.28;63.97
68145;BME280;55400;51.824;-0.196;2023-07-20T05:23:58;100679.28;;;15.32;64.03
68145;BME280;55400;51.824;-0.196;2023-07-20T05:27:58;100680.14;;;15.30;63.67
68145;BME280;55400;51.824;-0.196;2023-07-20T05:31:58;100679.16;;;15.35;63.62
68145;BME280;55400;51.824;-0.196;2023-07-20T05:35:58;100678.39;;;15.40;63.73
68145;BME280;55400;51.824;-0.196;2023-07-20T05:39:58;100678.39;;;15.42;63.73
68145;BME280;55400;51.824;-0.196;2023-07-20T05:43:58;100681.3;;;15.47;63.59
68145;BME280;55400;51.824;-0.196;2023-07-20T05:47:58;100683.37;;;15.48;63.74
68145;BME280;55400;51.824;-0.196;2023-07-20T05:51:58;100681.56;;;15.50;63.59
68145;BME280;55400;51.824;-0.196;2023-07-20T05:55:58;100680.8;;;15.54;63.96
68145;BME280;55400;51.824;-0.196;2023-07-20T05:59:59;100674.75;;;15.53;63.46
68145;BME280;55400;51.824;-0.196;2023-07-20T06:03:58;100674.69;;;15.55;63.90
68145;BME280;55400;51.824;-0.196;2023-07-20T06:07:58;100674.89;;;15.63;64.08
68145;BME280;55400;51.824;-0.196;2023-07-20T06:11:58;100675.55;;;15.69;63.89
68145;BME280;55400;51.824;-0.196;2023-07-20T06:15:59;100678.08;;;15.74;63.53
68145;BME280;55400;51.824;-0.196;2023-07-20T06:19:58;100678.08;;;15.78;63.53
68145;BME280;55400;51.824;-0.196;2023-07-20T06:23:59;100675.41;;;15.80;63.46
68145;BME280;55400;51.824;-0.196;2023-07-20T06:27:58;100677.44;;;15.83;63.27
68145;BME280;55400;51.824;-0.196;2023-07-20T06:31:59;100675.31;;;15.91;63.48
68145;BME280;55400;51.824;-0.196;2023-07-20T06:35:58;100675.31;;;16.00;63.48
68145;BME280;55400;51.824;-0.196;2023-07-20T06:39:59;100672.66;;;16.08;63.18
68145;BME280;55400;51.824;-0.196;2023-07-20T06:43:58;100672.66;;;16.15;62.78
68145;BME280;55400;51.824;-0.196;2023-07-20T06:47:59;100670.42;;;16.18;62.22
68145;BME280;55400;51.824;-0.196;2023-07-20T06:51:59;100676.03;;;16.24;62.54
68145;BME280;55400;51.824;-0.196;2023-07-20T06:55:59;100672.11;;;16.29;62.34
68145;BME280;55400;51.824;-0.196;2023-07-20T06:59:59;100673.71;;;16.32;62.17
68145;BME280;55400;51.824;-0.196;2023-07-20T07:03:59;100673.58;;;16.33;62.17
68145;BME280;55400;51.824;-0.196;2023-07-20T07:07:59;100674.87999999999;;;16.39;62.21
68145;BME280;55400;51.824;-0.196;2023-07-20T07:11:59;100678.06;;;16.51;62.51
68145;BME280;55400;51.824;-0.196;2023-07-20T07:15:59;100681.94;;;16.58;62.36
68145;BME280;55400;51.824;-0.196;2023-07-20T07:23:59;100681.3;;;16.65;61.90
68145;BME280;55400;51.824;-0.196;2023-07-20T07:27:59;100681.05;;;16.72;62.17
68145;BME280;55400;51.824;-0.196;2023-07-20T07:31:59;100682.33;;;16.83;61.96
68145;BME280;55400;51.824;-0.196;2023-07-20T07:35:59;100681.48;;;16.88;61.97
68145;BME280;55400;51.824;-0.196;2023-07-20T07:39:59;100679.11;;;16.99;61.59
68145;BME280;55400;51.824;-0.196;2023-07-20T07:43:59;100682.48;;;17.08;60.97
68145;BME280;55400;51.824;-0.196;2023-07-20T07:47:59;100682.37000000001;;;17.15;60.94
68145;BME280;55400;51.824;-0.196;2023-07-20T07:51:59;100679.38;;;17.16;60.51
68145;BME280;55400;51.824;-0.196;2023-07-20T08:00:28;100684.58;;;17.18;61.11
68145;BME280;55400;51.824;-0.196;2023-07-20T08:03:59;100678.74;;;17.32;61.11
68145;BME280;55400;51.824;-0.196;2023-07-20T08:07:58;100678.74;;;17.32;60.32
68145;BME280;55400;51.824;-0.196;2023-07-20T08:07:59;100679.76;;;17.40;60.04
68145;BME280;55400;51.824;-0.196;2023-07-20T08:11:59;100679.76;;;17.47;60.04
68145;BME280;55400;51.824;-0.196;2023-07-20T08:16:27;100681.53;;;17.56;59.44
68145;BME280;55400;51.824;-0.196;2023-07-20T08:20:53;100679.81;;;17.61;58.99
68145;BME280;55400;51.824;-0.196;2023-07-20T08:28:14;100675.06;;;17.74;58.37
68145;BME280;55400;51.824;-0.196;2023-07-20T08:31:59;100675.06;;;17.80;58.37
68145;BME280;55400;51.824;-0.196;2023-07-20T08:35:59;100670.42;;;17.85;57.45
68145;BME280;55400;51.824;-0.196;2023-07-20T08:39:59;100666.5;;;17.99;57.66
68145;BME280;55400;51.824;-0.196;2023-07-20T08:43:59;100671.39;;;18.18;57.15
68145;BME280;55400;51.824;-0.196;2023-07-20T08:47:59;100671.39;;;18.33;57.15
68145;BME280;55400;51.824;-0.196;2023-07-20T08:51:59;100666.81999999999;;;18.53;56.67
68145;BME280;55400;51.824;-0.196;2023-07-20T08:55:59;100668.76;;;18.65;56.54
68145;BME280;55400;51.824;-0.196;2023-07-20T08:59:59;100670.2;;;18.78;56.09
68145;BME280;55400;51.824;-0.196;2023-07-20T09:03:59;100672.39;;;18.92;55.79
68145;BME280;55400;51.824;-0.196;2023-07-20T09:07:59;100671.48;;;19.01;54.99
68145;BME280;55400;51.824;-0.196;2023-07-20T09:11:59;100671.48;;;19.06;54.37
68145;BME280;55400;51.824;-0.196;2023-07-20T09:15:59;100667.81;;;19.13;54.34
68145;BME280;55400;51.824;-0.196;2023-07-20T09:20:00;100667.81;;;19.17;53.13
68145;BME280;55400;51.824;-0.196;2023-07-20T09:23:59;100669.33;;;19.22;53.80
68145;BME280;55400;51.824;-0.196;2023-07-20T09:28:01;100669.03;;;19.24;52.44
68145;BME280;55400;51.824;-0.196;2023-07-20T09:31:59;100663.89;;;19.30;51.35
68145;BME280;55400;51.824;-0.196;2023-07-20T09:36:01;100663.89;;;19.37;51.83
68145;BME280;55400;51.824;-0.196;2023-07-20T09:39:59;100655.15000000001;;;19.46;52.13
68145;BME280;55400;51.824;-0.196;2023-07-20T09:43:59;100653.05;;;19.47;50.54
68145;BME280;55400;51.824;-0.196;2023-07-20T09:48:03;100658.56;;;19.52;51.19
68145;BME280;55400;51.824;-0.196;2023-07-20T09:51:59;100647.14;;;19.55;50.82
68145;BME280;55400;51.824;-0.196;2023-07-20T09:55:59;100647.14;;;19.60;50.56
68145;BME280;55400;51.824;-0.196;2023-07-20T09:59:59;100642.03;;;19.66;51.37
68145;BME280;55400;51.824;-0.196;2023-07-20T10:07:59;100637.8;;;19.74;49.73
68145;BME280;55400;51.824;-0.196;2023-07-20T10:11:59;100624.78;;;19.69;49.66
68145;BME280;55400;51.824;-0.196;2023-07-20T10:16:01;100624.78;;;19.61;50.26
68145;BME280;55400;51.824;-0.196;2023-07-20T10:19:59;100630.16;;;19.39;47.27
68145;BME280;55400;51.824;-0.196;2023-07-20T10:23:59;100632.22;;;19.24;48.22
68145;BME280;55400;51.824;-0.196;2023-07-20T10:27:59;100630.26999999999;;;19.19;47.43
68145;BME280;55400;51.824;-0.196;2023-07-20T10:31:59;100626.26000000001;;;19.26;49.44
68145;BME280;55400;51.824;-0.196;2023-07-20T10:36:01;100622.04000000001;;;19.47;47.96
68145;BME280;55400;51.824;-0.196;2023-07-20T10:40:00;100618.62999999999;;;19.66;48.40
68145;BME280;55400;51.824;-0.196;2023-07-20T10:44:00;100613.64;;;19.76;47.43
68145;BME280;55400;51.824;-0.196;2023-07-20T10:48:02;100614.18;;;19.69;48.04
68145;BME280;55400;51.824;-0.196;2023-07-20T10:52:00;100615.64;;;19.61;48.70
68145;BME280;55400;51.824;-0.196;2023-07-20T10:56:08;100612.44;;;19.64;47.38
68145;BME280;55400;51.824;-0.196;2023-07-20T11:03:59;100597.96;;;20.14;46.57
68145;BME280;55400;51.824;-0.196;2023-07-20T11:07:59;100597.96;;;20.28;46.57
68145;BME280;55400;51.824;-0.196;2023-07-20T11:12:08;100594.16;;;20.40;45.18
68145;BME280;55400;51.824;-0.196;2023-07-20T11:16:03;100594.67;;;20.44;45.45
68145;BME280;55400;51.824;-0.196;2023-07-20T11:20:00;100597.86;;;20.30;46.09
68145;BME280;55400;51.824;-0.196;2023-07-20T11:23:59;100587.15999999999;;;20.36;45.31
68145;BME280;55400;51.824;-0.196;2023-07-20T11:27:59;100589.72;;;20.44;45.02
68145;BME280;55400;51.824;-0.196;2023-07-20T11:32:00;100586.28;;;20.55;44.13
68145;BME280;55400;51.824;-0.196;2023-07-20T11:35:59;100585.51999999999;;;20.70;43.92
68145;BME280;55400;51.824;-0.196;2023-07-20T11:39:59;100575.7;;;20.89;44.64
68145;BME280;55400;51.824;-0.196;2023-07-20T11:43:59;100571.36;;;20.88;43.80
68145;BME280;55400;51.824;-0.196;2023-07-20T11:47:59;100580.29000000001;;;20.77;43.31
68145;BME280;55400;51.824;-0.196;2023-07-20T11:51:59;100576.01;;;20.88;42.66
68145;BME280;55400;51.824;-0.196;2023-07-20T11:55:59;100566.61;;;20.94;42.15
68145;BME280;55400;51.824;-0.196;2023-07-20T12:00:00;100566.61;;;21.05;42.15
68145;BME280;55400;51.824;-0.196;2023-07-20T12:03:59;100566.97;;;21.19;42.73
68145;BME280;55400;51.824;-0.196;2023-07-20T12:08:00;100564.45;;;21.26;42.80
68145;BME280;55400;51.824;-0.196;2023-07-20T12:12:00;100559.27;;;21.42;41.56
68145;BME280;55400;51.824;-0.196;2023-07-20T12:16:06;100554.31999999999;;;21.56;42.19
68145;BME280;55400;51.824;-0.196;2023-07-20T12:24:00;100553.99;;;21.54;41.11
68145;BME280;55400;51.824;-0.196;2023-07-20T12:28:00;100549.84;;;21.59;40.83
68145;BME280;55400;51.824;-0.196;2023-07-20T12:36:00;100547.41;;;21.56;41.09
68145;BME280;55400;51.824;-0.196;2023-07-20T12:39:59;100545.01000000001;;;21.59;40.85
68145;BME280;55400;51.824;-0.196;2023-07-20T12:44:00;100539.36;;;21.61;41.92
68145;BME280;55400;51.824;-0.196;2023-07-20T12:48:00;100535.74;;;21.53;41.22
68145;BME280;55400;51.824;-0.196;2023-07-20T12:56:00;100531.72;;;21.54;40.38
68145;BME280;55400;51.824;-0.196;2023-07-20T13:00:00;100522.06;;;21.57;41.19
68145;BME280;55400;51.824;-0.196;2023-07-20T13:04:00;100522.06;;;21.63;40.77
68145;BME280;55400;51.824;-0.196;2023-07-20T13:08:00;100516.42;;;21.62;40.54
68145;BME280;55400;51.824;-0.196;2023-07-20T13:12:00;100518.44;;;21.61;39.95
68145;BME280;55400;51.824;-0.196;2023-07-20T13:20:00;100514.64;;;21.82;40.83
68145;BME280;55400;51.824;-0.196;2023-07-20T13:24:00;100509.75;;;22.21;40.49
68145;BME280;55400;51.824;-0.196;2023-07-20T13:28:00;100505.11;;;22.62;40.52
68145;BME280;55400;51.824;-0.196;2023-07-20T13:32:00;100506.94;;;22.73;39.27
68145;BME280;55400;51.824;-0.196;2023-07-20T13:36:00;100504.66;;;22.71;40.18
68145;BME280;55400;51.824;-0.196;2023-07-20T13:40:00;100504.66;;;22.64;40.18
68145;BME280;55400;51.824;-0.196;2023-07-20T13:44:00;100501.14;;;22.68;39.52
68145;BME280;55400;51.824;-0.196;2023-07-20T13:48:00;100496.66;;;22.77;39.34
68145;BME280;55400;51.824;-0.196;2023-07-20T13:52:00;100500.5;;;22.83;39.91
68145;BME280;55400;51.824;-0.196;2023-07-20T13:56:00;100498.03;;;22.91;40.03
68145;BME280;55400;51.824;-0.196;2023-07-20T14:00:00;100498.27;;;23.00;39.88
68145;BME280;55400;51.824;-0.196;2023-07-20T14:04:00;100498.1;;;23.11;40.17
68145;BME280;55400;51.824;-0.196;2023-07-20T14:12:00;100500.31;;;23.05;39.47
68145;BME280;55400;51.824;-0.196;2023-07-20T14:16:00;100486.73999999999;;;22.97;37.73
68145;BME280;55400;51.824;-0.196;2023-07-20T14:20:00;100484.63;;;22.94;38.51
68145;BME280;55400;51.824;-0.196;2023-07-20T14:24:00;100487.62000000001;;;22.93;39.81
68145;BME280;55400;51.824;-0.196;2023-07-20T14:28:00;100485.96;;;22.95;39.61
68145;BME280;55400;51.824;-0.196;2023-07-20T14:32:00;100481.67;;;23.01;38.68
68145;BME280;55400;51.824;-0.196;2023-07-20T14:36:00;100476.36;;;23.17;38.73
68145;BME280;55400;51.824;-0.196;2023-07-20T14:40:00;100475.9;;;23.28;38.69
68145;BME280;55400;51.824;-0.196;2023-07-20T14:44:00;100479.69;;;23.26;38.93
68145;BME280;55400;51.824;-0.196;2023-07-20T14:48:00;100464.71;;;23.30;38.29
68145;BME280;55400;51.824;-0.196;2023-07-20T14:52:00;100458.09000000001;;;23.42;38.43
68145;BME280;55400;51.824;-0.196;2023-07-20T14:56:00;100453.29000000001;;;23.56;38.34
68145;BME280;55400;51.824;-0.196;2023-07-20T15:00:00;100455.64;;;23.53;38.63
68145;BME280;55400;51.824;-0.196;2023-07-20T15:04:00;100454.86;;;23.38;37.84
68145;BME280;55400;51.824;-0.196;2023-07-20T15:08:00;100453.53;;;23.34;38.00
68145;BME280;55400;51.824;-0.196;2023-07-20T15:12:00;100450.81;;;23.32;38.26
68145;BME280;55400;51.824;-0.196;2023-07-20T15:16:00;100447.03;;;23.38;37.96
68145;BME280;55400;51.824;-0.196;2023-07-20T15:20:00;100442.69;;;23.55;37.72
68145;BME280;55400;51.824;-0.196;2023-07-20T15:24:00;100439.14;;;23.67;38.16
68145;BME280;55400;51.824;-0.196;2023-07-20T15:28:25;100433.29;;;23.81;37.80
68145;BME280;55400;51.824;-0.196;2023-07-20T15:32:00;100433.29;;;23.86;37.80
68145;BME280;55400;51.824;-0.196;2023-07-20T15:36:00;100433.34;;;23.72;38.07
68145;BME280;55400;51.824;-0.196;2023-07-20T15:40:00;100433.59;;;23.58;38.24
68145;BME280;55400;51.824;-0.196;2023-07-20T15:44:00;100432.96;;;23.45;38.54
68145;BME280;55400;51.824;-0.196;2023-07-20T15:48:00;100432.96;;;23.24;38.30
68145;BME280;55400;51.824;-0.196;2023-07-20T15:52:00;100430.76;;;23.12;38.47
68145;BME280;55400;51.824;-0.196;2023-07-20T15:56:00;100420.06999999999;;;23.03;38.56
68145;BME280;55400;51.824;-0.196;2023-07-20T16:00:00;100420.06999999999;;;22.95;38.60
68145;BME280;55400;51.824;-0.196;2023-07-20T16:04:00;100427.82999999999;;;22.87;38.75
68145;BME280;55400;51.824;-0.196;2023-07-20T16:08:00;100419.7;;;22.76;38.74
68145;BME280;55400;51.824;-0.196;2023-07-20T16:12:00;100419.7;;;22.67;38.83
68145;BME280;55400;51.824;-0.196;2023-07-20T16:16:00;100423.47;;;22.54;38.95
68145;BME280;55400;51.824;-0.196;2023-07-20T16:20:00;100423.47;;;22.51;39.45
68145;BME280;55400;51.824;-0.196;2023-07-20T16:24:00;100422.86;;;22.49;39.71
68145;BME280;55400;51.824;-0.196;2023-07-20T16:28:00;100419.62;;;22.50;39.97
68145;BME280;55400;51.824;-0.196;2023-07-20T16:32:00;100416.51000000001;;;22.54;40.22
68145;BME280;55400;51.824;-0.196;2023-07-20T16:36:00;100416.51000000001;;;22.56;40.22
68145;BME280;55400;51.824;-0.196;2023-07-20T16:40:00;100416.92;;;22.62;40.28
68145;BME280;55400;51.824;-0.196;2023-07-20T16:44:00;100416.39;;;22.65;40.36
68145;BME280;55400;51.824;-0.196;2023-07-20T16:48:00;100413.81999999999;;;22.64;40.44
68145;BME280;55400;51.824;-0.196;2023-07-20T16:52:00;100406.48;;;22.60;40.61
68145;BME280;55400;51.824;-0.196;2023-07-20T16:56:00;100409.31;;;22.57;40.80
68145;BME280;55400;51.824;-0.196;2023-07-20T17:00:49;100408.15;;;22.52;40.86
68145;BME280;55400;51.824;-0.196;2023-07-20T17:04:01;100408.15;;;22.46;40.86
68145;BME280;55400;51.824;-0.196;2023-07-20T17:08:23;100405.81;;;22.51;41.07
68145;BME280;55400;51.824;-0.196;2023-07-20T17:12:00;100401.33;;;22.46;41.07
68145;BME280;55400;51.824;-0.196;2023-07-20T17:16:00;100396.73;;;22.31;41.12
68145;BME280;55400;51.824;-0.196;2023-07-20T17:20:00;100393.34;;;22.13;41.48
68145;BME280;55400;51.824;-0.196;2023-07-20T17:24:00;100393.34;;;21.98;41.48
68145;BME280;55400;51.824;-0.196;2023-07-20T17:28:00;100389.9;;;21.91;41.70
68145;BME280;55400;51.824;-0.196;2023-07-20T17:32:00;100390.48;;;21.83;41.79
68145;BME280;55400;51.824;-0.196;2023-07-20T17:36:00;100386.31;;;21.73;42.09
68145;BME280;55400;51.824;-0.196;2023-07-20T17:40:06;100383.17;;;21.67;42.23
68145;BME280;55400;51.824;-0.196;2023-07-20T17:44:00;100382.28;;;21.62;42.46
68145;BME280;55400;51.824;-0.196;2023-07-20T17:48:00;100382.28;;;21.53;42.46
68145;BME280;55400;51.824;-0.196;2023-07-20T17:52:00;100378.23;;;21.45;42.54
68145;BME280;55400;51.824;-0.196;2023-07-20T17:56:00;100381.56;;;21.40;42.76
68145;BME280;55400;51.824;-0.196;2023-07-20T18:00:00;100385.29;;;21.37;42.93
68145;BME280;55400;51.824;-0.196;2023-07-20T18:04:00;100385.29;;;21.28;42.93
68145;BME280;55400;51.824;-0.196;2023-07-20T18:08:00;100383.42;;;21.17;43.39
68145;BME280;55400;51.824;-0.196;2023-07-20T18:12:01;100380.53;;;21.13;43.42
68145;BME280;55400;51.824;-0.196;2023-07-20T18:16:01;100381.58;;;21.23;43.42
68145;BME280;55400;51.824;-0.196;2023-07-20T18:20:01;100381.58;;;21.33;43.47
68145;BME280;55400;51.824;-0.196;2023-07-20T18:24:00;100380.02;;;21.36;43.39
68145;BME280;55400;51.824;-0.196;2023-07-20T18:28:00;100387.01999999999;;;21.25;43.29
68145;BME280;55400;51.824;-0.196;2023-07-20T18:32:01;100395.62;;;21.00;43.64
68145;BME280;55400;51.824;-0.196;2023-07-20T18:36:01;100402.69;;;20.68;44.71
68145;BME280;55400;51.824;-0.196;2023-07-20T18:40:01;100403.95999999999;;;20.54;46.16
68145;BME280;55400;51.824;-0.196;2023-07-20T18:44:01;100416.11;;;20.47;46.46
68145;BME280;55400;51.824;-0.196;2023-07-20T18:48:01;100416.11;;;20.43;47.21
68145;BME280;55400;51.824;-0.196;2023-07-20T18:52:01;100415.26;;;20.30;46.83
68145;BME280;55400;51.824;-0.196;2023-07-20T18:56:01;100415.26;;;20.21;47.34
68145;BME280;55400;51.824;-0.196;2023-07-20T19:00:01;100415.31;;;20.15;47.63
68145;BME280;55400;51.824;-0.196;2023-07-20T19:04:01;100415.31;;;19.98;47.43
68145;BME280;55400;51.824;-0.196;2023-07-20T19:08:01;100410.63;;;19.70;48.51
68145;BME280;55400;51.824;-0.196;2023-07-20T19:12:01;100417.04999999999;;;19.66;48.52
68145;BME280;55400;51.824;-0.196;2023-07-20T19:16:01;100417.04999999999;;;19.90;48.31
68145;BME280;55400;51.824;-0.196;2023-07-20T19:24:09;100430.36;;;19.93;48.35
68145;BME280;55400;51.824;-0.196;2023-07-20T19:28:29;100428.38;;;19.83;48.26
68145;BME280;55400;51.824;-0.196;2023-07-20T19:36:01;100434.63;;;19.84;48.25
68145;BME280;55400;51.824;-0.196;2023-07-20T19:44:01;100440.20000000001;;;19.75;48.63
68145;BME280;55400;51.824;-0.196;2023-07-20T19:48:01;100443.61;;;19.64;49.04
68145;BME280;55400;51.824;-0.196;2023-07-20T19:52:01;100440.25;;;19.52;49.38
68145;BME280;55400;51.824;-0.196;2023-07-20T19:56:01;100438.56;;;19.47;50.02
68145;BME280;55400;51.824;-0.196;2023-07-20T20:00:01;100441.14;;;19.43;50.26
68145;BME280;55400;51.824;-0.196;2023-07-20T20:04:01;100440.86;;;19.41;50.47
68145;BME280;55400;51.824;-0.196;2023-07-20T20:08:01;100440.86;;;19.40;50.76
68145;BME280;55400;51.824;-0.196;2023-07-20T20:12:01;100439.0;;;19.38;51.11
68145;BME280;55400;51.824;-0.196;2023-07-20T20:20:01;100436.78;;;19.34;51.47
68145;BME280;55400;51.824;-0.196;2023-07-20T20:24:01;100437.85;;;19.29;50.96
68145;BME280;55400;51.824;-0.196;2023-07-20T20:28:01;100442.68;;;19.24;51.52
68145;BME280;55400;51.824;-0.196;2023-07-20T20:32:01;100440.81;;;19.19;51.85
68145;BME280;55400;51.824;-0.196;2023-07-20T20:36:01;100444.05;;;19.17;51.81
68145;BME280;55400;51.824;-0.196;2023-07-20T20:40:01;100444.39;;;19.12;52.04
68145;BME280;55400;51.824;-0.196;2023-07-20T20:44:01;100449.22;;;19.07;52.41
68145;BME280;55400;51.824;-0.196;2023-07-20T20:48:01;100445.84;;;19.05;52.54
68145;BME280;55400;51.824;-0.196;2023-07-20T20:52:01;100447.43999999999;;;19.01;52.73
68145;BME280;55400;51.824;-0.196;2023-07-20T20:56:01;100446.2;;;18.98;53.16
68145;BME280;55400;51.824;-0.196;2023-07-20T21:00:01;100451.86;;;18.93;53.09
68145;BME280;55400;51.824;-0.196;2023-07-20T21:04:01;100453.54;;;18.91;53.49
68145;BME280;55400;51.824;-0.196;2023-07-20T21:08:01;100453.54;;;18.86;53.49
68145;BME280;55400;51.824;-0.196;2023-07-20T21:12:01;100455.52;;;18.80;53.78
68145;BME280;55400;51.824;-0.196;2023-07-20T21:16:01;100449.27;;;18.73;53.95
68145;BME280;55400;51.824;-0.196;2023-07-20T21:20:01;100448.99;;;18.74;54.21
68145;BME280;55400;51.824;-0.196;2023-07-20T21:24:01;100452.53;;;18.73;54.60